sensor_id;sensor_type;location;lat;lon;timestamp;pressure;altitude;pressure_sealevel;temperature;humidity
30618;BME280;17384;51.214;9.202;2022-12-11T00:01:58;98146.53;;;-5.50;84.72
30618;BME280;17384;51.214;9.202;2022-12-11T00:04:23;98144.97;;;-5.52;84.95
30618;BME280;17384;51.214;9.202;2022-12-11T00:06:49;98141.78;;;-5.46;85.37
30618;BME280;17384;51.214;9.202;2022-12-11T00:09:16;98142.84;;;-5.28;84.95
30618;BME280;17384;51.214;9.202;2022-12-11T00:11:42;98154.66;;;-5.32;84.92
30618;BME280;17384;51.214;9.202;2022-12-11T00:14:08;98142.41;;;-5.33;84.61
30618;BME280;17384;51.214;9.202;2022-12-11T00:16:33;98145.13;;;-5.44;85.63
30618;BME280;17384;51.214;9.202;2022-12-11T00:18:59;98139.47;;;-5.39;85.79
30618;BME280;17384;51.214;9.202;2022-12-11T00:21:24;98145.19;;;-5.34;85.48
30618;BME280;17384;51.214;9.202;2022-12-11T00:23:50;98136.28;;;-5.33;85.44
30618;BME280;17384;51.214;9.202;2022-12-11T00:26:16;98134.66;;;-5.25;85.70
30618;BME280;17384;51.214;9.202;2022-12-11T00:28:42;98133.16;;;-5.18;85.68
30618;BME280;17384;51.214;9.202;2022-12-11T00:31:12;98121.47;;;-5.15;85.39
30618;BME280;17384;51.214;9.202;2022-12-11T00:33:39;98135.25;;;-5.12;85.88
30618;BME280;17384;51.214;9.202;2022-12-11T00:36:20;98125.97;;;-5.06;85.58
30618;BME280;17384;51.214;9.202;2022-12-11T00:38:46;98126.53;;;-5.02;85.38
30618;BME280;17384;51.214;9.202;2022-12-11T00:41:13;98127.22;;;-5.00;85.58
30618;BME280;17384;51.214;9.202;2022-12-11T00:43:39;98135.00;;;-5.08;85.50
30618;BME280;17384;51.214;9.202;2022-12-11T00:46:04;98130.59;;;-4.98;85.21
30618;BME280;17384;51.214;9.202;2022-12-11T00:48:30;98125.28;;;-4.98;85.33
30618;BME280;17384;51.214;9.202;2022-12-11T00:50:56;98140.34;;;-4.89;85.39
30618;BME280;17384;51.214;9.202;2022-12-11T00:53:22;98136.47;;;-4.75;85.01
30618;BME280;17384;51.214;9.202;2022-12-11T00:55:47;98132.00;;;-4.85;85.44
30618;BME280;17384;51.214;9.202;2022-12-11T00:58:13;98147.88;;;-4.85;85.52
30618;BME280;17384;51.214;9.202;2022-12-11T01:00:39;98143.41;;;-4.84;85.54
30618;BME280;17384;51.214;9.202;2022-12-11T01:03:05;98147.28;;;-4.98;85.20
30618;BME280;17384;51.214;9.202;2022-12-11T01:05:31;98147.56;;;-5.01;85.83
30618;BME280;17384;51.214;9.202;2022-12-11T01:07:57;98146.53;;;-5.09;85.88
30618;BME280;17384;51.214;9.202;2022-12-11T01:10:22;98149.63;;;-5.04;85.80
30618;BME280;17384;51.214;9.202;2022-12-11T01:13:03;98148.00;;;-4.96;85.77
30618;BME280;17384;51.214;9.202;2022-12-11T01:15:40;98151.56;;;-5.06;85.73
30618;BME280;17384;51.214;9.202;2022-12-11T01:18:06;98141.44;;;-5.01;85.69
30618;BME280;17384;51.214;9.202;2022-12-11T01:20:32;98150.06;;;-4.99;86.09
30618;BME280;17384;51.214;9.202;2022-12-11T01:22:59;98153.94;;;-5.03;86.11
30618;BME280;17384;51.214;9.202;2022-12-11T01:25:25;98149.81;;;-4.96;86.22
30618;BME280;17384;51.214;9.202;2022-12-11T01:27:53;98161.22;;;-4.96;86.13
30618;BME280;17384;51.214;9.202;2022-12-11T01:30:19;98152.31;;;-4.85;85.99
30618;BME280;17384;51.214;9.202;2022-12-11T01:32:45;98149.00;;;-4.78;85.78
30618;BME280;17384;51.214;9.202;2022-12-11T01:35:12;98142.03;;;-4.79;85.61
30618;BME280;17384;51.214;9.202;2022-12-11T01:37:38;98150.69;;;-4.77;85.22
30618;BME280;17384;51.214;9.202;2022-12-11T01:40:05;98153.19;;;-4.75;85.65
30618;BME280;17384;51.214;9.202;2022-12-11T01:42:32;98153.91;;;-4.73;85.37
30618;BME280;17384;51.214;9.202;2022-12-11T01:47:46;98155.72;;;-4.73;86.06
30618;BME280;17384;51.214;9.202;2022-12-11T01:50:11;98155.03;;;-4.66;85.89
30618;BME280;17384;51.214;9.202;2022-12-11T01:52:37;98152.22;;;-4.64;85.94
30618;BME280;17384;51.214;9.202;2022-12-11T01:55:04;98152.66;;;-4.59;85.69
30618;BME280;17384;51.214;9.202;2022-12-11T01:57:30;98145.13;;;-4.64;86.04
30618;BME280;17384;51.214;9.202;2022-12-11T01:59:55;98148.75;;;-4.65;86.15
30618;BME280;17384;51.214;9.202;2022-12-11T02:02:29;98158.78;;;-4.59;86.17
30618;BME280;17384;51.214;9.202;2022-12-11T02:04:56;98144.75;;;-4.50;86.28
30618;BME280;17384;51.214;9.202;2022-12-11T02:07:22;98147.69;;;-4.43;85.74
30618;BME280;17384;51.214;9.202;2022-12-11T02:09:48;98146.56;;;-4.40;85.75
30618;BME280;17384;51.214;9.202;2022-12-11T02:15:24;98138.31;;;-4.37;85.27
30618;BME280;17384;51.214;9.202;2022-12-11T02:17:56;98149.91;;;-4.29;85.14
30618;BME280;17384;51.214;9.202;2022-12-11T02:20:31;98150.19;;;-4.32;85.29
30618;BME280;17384;51.214;9.202;2022-12-11T02:31:02;98141.41;;;-4.52;85.68
30618;BME280;17384;51.214;9.202;2022-12-11T02:34:03;98140.81;;;-4.55;85.92
30618;BME280;17384;51.214;9.202;2022-12-11T02:36:35;98143.50;;;-4.46;85.82
30618;BME280;17384;51.214;9.202;2022-12-11T02:39:03;98143.09;;;-4.41;85.93
30618;BME280;17384;51.214;9.202;2022-12-11T02:41:31;98143.22;;;-4.33;85.74
30618;BME280;17384;51.214;9.202;2022-12-11T02:43:59;98142.94;;;-4.30;86.10
30618;BME280;17384;51.214;9.202;2022-12-11T02:46:27;98127.06;;;-4.11;85.54
30618;BME280;17384;51.214;9.202;2022-12-11T02:48:54;98128.19;;;-4.13;85.32
30618;BME280;17384;51.214;9.202;2022-12-11T02:51:25;98138.09;;;-4.15;85.44
30618;BME280;17384;51.214;9.202;2022-12-11T02:53:56;98122.88;;;-4.13;85.63
30618;BME280;17384;51.214;9.202;2022-12-11T02:56:29;98127.59;;;-4.07;85.55
30618;BME280;17384;51.214;9.202;2022-12-11T02:59:00;98123.28;;;-4.08;85.56
30618;BME280;17384;51.214;9.202;2022-12-11T03:01:29;98115.06;;;-4.05;85.32
30618;BME280;17384;51.214;9.202;2022-12-11T03:03:55;98129.84;;;-4.02;85.21
30618;BME280;17384;51.214;9.202;2022-12-11T03:06:27;98132.06;;;-3.98;85.19
30618;BME280;17384;51.214;9.202;2022-12-11T03:08:56;98125.41;;;-4.12;85.33
30618;BME280;17384;51.214;9.202;2022-12-11T03:11:21;98116.16;;;-3.98;85.50
30618;BME280;17384;51.214;9.202;2022-12-11T03:13:47;98127.75;;;-3.89;84.56
30618;BME280;17384;51.214;9.202;2022-12-11T03:16:34;98123.84;;;-3.95;84.92
30618;BME280;17384;51.214;9.202;2022-12-11T03:21:44;98129.00;;;-3.84;84.21
30618;BME280;17384;51.214;9.202;2022-12-11T03:24:18;98126.63;;;-3.87;84.35
30618;BME280;17384;51.214;9.202;2022-12-11T03:26:50;98127.75;;;-3.99;84.81
30618;BME280;17384;51.214;9.202;2022-12-11T03:29:24;98131.38;;;-4.00;84.74
30618;BME280;17384;51.214;9.202;2022-12-11T03:31:58;98129.56;;;-3.90;84.73
30618;BME280;17384;51.214;9.202;2022-12-11T03:34:43;98130.94;;;-3.95;84.56
30618;BME280;17384;51.214;9.202;2022-12-11T03:37:12;98133.75;;;-3.97;84.87
30618;BME280;17384;51.214;9.202;2022-12-11T03:39:42;98129.00;;;-3.93;85.38
30618;BME280;17384;51.214;9.202;2022-12-11T03:42:11;98131.94;;;-3.87;85.20
30618;BME280;17384;51.214;9.202;2022-12-11T03:44:39;98125.34;;;-3.83;85.45
30618;BME280;17384;51.214;9.202;2022-12-11T03:47:07;98129.22;;;-3.67;84.92
30618;BME280;17384;51.214;9.202;2022-12-11T03:49:38;98124.06;;;-3.69;84.71
30618;BME280;17384;51.214;9.202;2022-12-11T03:52:06;98136.78;;;-3.72;84.56
30618;BME280;17384;51.214;9.202;2022-12-11T03:54:33;98129.78;;;-3.73;84.85
30618;BME280;17384;51.214;9.202;2022-12-11T03:57:01;98132.16;;;-3.80;84.59
30618;BME280;17384;51.214;9.202;2022-12-11T03:59:28;98138.75;;;-3.94;84.74
30618;BME280;17384;51.214;9.202;2022-12-11T04:01:53;98135.13;;;-3.93;85.06
30618;BME280;17384;51.214;9.202;2022-12-11T04:06:50;98126.72;;;-3.69;84.74
30618;BME280;17384;51.214;9.202;2022-12-11T04:09:15;98121.84;;;-3.73;84.44
30618;BME280;17384;51.214;9.202;2022-12-11T04:11:41;98129.78;;;-3.73;84.84
30618;BME280;17384;51.214;9.202;2022-12-11T04:14:10;98126.72;;;-3.69;84.80
30618;BME280;17384;51.214;9.202;2022-12-11T04:16:55;98129.22;;;-3.58;84.46
30618;BME280;17384;51.214;9.202;2022-12-11T04:19:21;98125.13;;;-3.52;83.95
30618;BME280;17384;51.214;9.202;2022-12-11T04:22:05;98113.19;;;-3.66;84.37
30618;BME280;17384;51.214;9.202;2022-12-11T04:24:49;98123.78;;;-3.66;84.69
30618;BME280;17384;51.214;9.202;2022-12-11T04:27:16;98134.53;;;-3.67;84.56
30618;BME280;17384;51.214;9.202;2022-12-11T04:30:02;98120.16;;;-3.65;84.82
30618;BME280;17384;51.214;9.202;2022-12-11T04:32:28;98113.31;;;-3.58;85.21
30618;BME280;17384;51.214;9.202;2022-12-11T04:34:53;98110.66;;;-3.58;85.25
30618;BME280;17384;51.214;9.202;2022-12-11T04:37:19;98122.63;;;-3.54;84.97
30618;BME280;17384;51.214;9.202;2022-12-11T04:39:44;98135.03;;;-3.45;84.50
30618;BME280;17384;51.214;9.202;2022-12-11T04:42:10;98133.34;;;-3.36;84.14
30618;BME280;17384;51.214;9.202;2022-12-11T04:44:35;98130.97;;;-3.39;84.42
30618;BME280;17384;51.214;9.202;2022-12-11T04:47:01;98123.88;;;-3.48;84.53
30618;BME280;17384;51.214;9.202;2022-12-11T04:49:26;98113.25;;;-3.48;84.94
30618;BME280;17384;51.214;9.202;2022-12-11T04:51:52;98115.06;;;-3.39;84.17
30618;BME280;17384;51.214;9.202;2022-12-11T04:54:17;98116.22;;;-3.51;84.19
30618;BME280;17384;51.214;9.202;2022-12-11T04:56:42;98106.84;;;-3.46;84.42
30618;BME280;17384;51.214;9.202;2022-12-11T04:59:08;98106.69;;;-3.44;84.44
30618;BME280;17384;51.214;9.202;2022-12-11T05:01:34;98109.91;;;-3.41;83.82
30618;BME280;17384;51.214;9.202;2022-12-11T05:03:59;98109.06;;;-3.41;84.42
30618;BME280;17384;51.214;9.202;2022-12-11T05:06:24;98098.97;;;-3.65;84.48
30618;BME280;17384;51.214;9.202;2022-12-11T05:08:50;98106.34;;;-3.59;84.55
30618;BME280;17384;51.214;9.202;2022-12-11T05:11:15;98094.84;;;-3.50;84.60
30618;BME280;17384;51.214;9.202;2022-12-11T05:13:42;98100.16;;;-3.50;84.14
30618;BME280;17384;51.214;9.202;2022-12-11T05:16:10;98109.34;;;-3.44;83.57
30618;BME280;17384;51.214;9.202;2022-12-11T05:18:36;98104.22;;;-3.18;80.35
30618;BME280;17384;51.214;9.202;2022-12-11T05:21:04;98106.63;;;-3.25;79.90
30618;BME280;17384;51.214;9.202;2022-12-11T05:23:30;98110.94;;;-3.24;80.61
30618;BME280;17384;51.214;9.202;2022-12-11T05:25:58;98096.28;;;-3.28;80.39
30618;BME280;17384;51.214;9.202;2022-12-11T05:28:27;98099.06;;;-3.20;79.50
30618;BME280;17384;51.214;9.202;2022-12-11T05:31:28;98088.19;;;-3.26;79.14
30618;BME280;17384;51.214;9.202;2022-12-11T05:33:54;98091.69;;;-3.26;79.22
30618;BME280;17384;51.214;9.202;2022-12-11T05:36:27;98099.84;;;-3.37;79.77
30618;BME280;17384;51.214;9.202;2022-12-11T05:38:54;98094.53;;;-3.37;80.56
30618;BME280;17384;51.214;9.202;2022-12-11T05:41:22;98096.13;;;-3.17;78.89
30618;BME280;17384;51.214;9.202;2022-12-11T05:43:47;98107.44;;;-3.15;79.71
30618;BME280;17384;51.214;9.202;2022-12-11T05:46:23;98097.44;;;-3.30;80.01
30618;BME280;17384;51.214;9.202;2022-12-11T05:48:50;98088.94;;;-3.34;80.34
30618;BME280;17384;51.214;9.202;2022-12-11T05:51:17;98099.34;;;-3.23;79.97
30618;BME280;17384;51.214;9.202;2022-12-11T05:53:44;98097.00;;;-3.26;80.10
30618;BME280;17384;51.214;9.202;2022-12-11T05:56:16;98102.41;;;-3.18;79.92
30618;BME280;17384;51.214;9.202;2022-12-11T05:58:43;98088.03;;;-3.15;79.49
30618;BME280;17384;51.214;9.202;2022-12-11T06:01:11;98091.69;;;-3.26;80.12
30618;BME280;17384;51.214;9.202;2022-12-11T06:03:37;98080.31;;;-3.36;80.45
30618;BME280;17384;51.214;9.202;2022-12-11T06:06:06;98097.06;;;-3.35;80.86
30618;BME280;17384;51.214;9.202;2022-12-11T06:08:32;98095.78;;;-3.31;80.98
30618;BME280;17384;51.214;9.202;2022-12-11T06:10:58;98099.84;;;-3.37;81.01
30618;BME280;17384;51.214;9.202;2022-12-11T06:13:24;98092.16;;;-3.30;80.99
30618;BME280;17384;51.214;9.202;2022-12-11T06:15:50;98089.69;;;-3.14;80.65
30618;BME280;17384;51.214;9.202;2022-12-11T06:18:16;98080.63;;;-2.94;79.38
30618;BME280;17384;51.214;9.202;2022-12-11T06:20:41;98087.97;;;-3.05;79.91
30618;BME280;17384;51.214;9.202;2022-12-11T06:23:07;98080.38;;;-3.00;79.88
30618;BME280;17384;51.214;9.202;2022-12-11T06:25:32;98084.22;;;-2.85;78.66
30618;BME280;17384;51.214;9.202;2022-12-11T06:27:58;98081.78;;;-2.96;78.33
30618;BME280;17384;51.214;9.202;2022-12-11T06:30:23;98091.38;;;-3.13;79.18
30618;BME280;17384;51.214;9.202;2022-12-11T06:32:49;98078.81;;;-3.21;79.34
30618;BME280;17384;51.214;9.202;2022-12-11T06:35:14;98078.53;;;-3.18;79.60
30618;BME280;17384;51.214;9.202;2022-12-11T06:37:40;98089.03;;;-3.26;80.09
30618;BME280;17384;51.214;9.202;2022-12-11T06:40:07;98083.28;;;-3.21;80.38
30618;BME280;17384;51.214;9.202;2022-12-11T06:42:34;98064.59;;;-3.20;80.07
30618;BME280;17384;51.214;9.202;2022-12-11T06:44:59;98069.25;;;-3.04;79.63
30618;BME280;17384;51.214;9.202;2022-12-11T06:47:26;98072.13;;;-2.97;79.34
30618;BME280;17384;51.214;9.202;2022-12-11T06:49:53;98063.56;;;-3.09;79.71
30618;BME280;17384;51.214;9.202;2022-12-11T06:52:20;98065.22;;;-3.08;80.28
30618;BME280;17384;51.214;9.202;2022-12-11T06:54:45;98081.59;;;-3.13;80.59
30618;BME280;17384;51.214;9.202;2022-12-11T06:57:11;98073.78;;;-3.14;80.37
30618;BME280;17384;51.214;9.202;2022-12-11T06:59:36;98076.09;;;-3.29;80.88
30618;BME280;17384;51.214;9.202;2022-12-11T07:02:02;98077.84;;;-3.20;80.73
30618;BME280;17384;51.214;9.202;2022-12-11T07:04:28;98078.53;;;-3.18;80.66
30618;BME280;17384;51.214;9.202;2022-12-11T07:06:55;98089.03;;;-2.98;80.39
30618;BME280;17384;51.214;9.202;2022-12-11T07:09:21;98082.06;;;-2.99;79.30
30618;BME280;17384;51.214;9.202;2022-12-11T07:11:51;98077.66;;;-3.09;79.59
30618;BME280;17384;51.214;9.202;2022-12-11T07:14:18;98084.69;;;-3.17;80.46
30618;BME280;17384;51.214;9.202;2022-12-11T07:16:44;98077.84;;;-3.20;80.61
30618;BME280;17384;51.214;9.202;2022-12-11T07:19:10;98081.47;;;-3.21;81.21
30618;BME280;17384;51.214;9.202;2022-12-11T07:21:36;98076.88;;;-3.19;81.15
30618;BME280;17384;51.214;9.202;2022-12-11T07:24:01;98076.69;;;-3.08;81.20
30618;BME280;17384;51.214;9.202;2022-12-11T07:26:27;98086.59;;;-3.10;80.97
30618;BME280;17384;51.214;9.202;2022-12-11T07:28:56;98087.22;;;-2.98;81.22
30618;BME280;17384;51.214;9.202;2022-12-11T07:31:23;98087.00;;;-3.04;80.93
30618;BME280;17384;51.214;9.202;2022-12-11T07:33:58;98084.41;;;-2.96;80.47
30618;BME280;17384;51.214;9.202;2022-12-11T07:36:25;98084.28;;;-2.95;80.51
30618;BME280;17384;51.214;9.202;2022-12-11T07:38:51;98092.44;;;-3.06;80.45
30618;BME280;17384;51.214;9.202;2022-12-11T07:41:17;98081.22;;;-3.00;80.72
30618;BME280;17384;51.214;9.202;2022-12-11T07:43:43;98092.38;;;-2.96;81.03
30618;BME280;17384;51.214;9.202;2022-12-11T07:46:15;98085.94;;;-2.94;80.79
30618;BME280;17384;51.214;9.202;2022-12-11T07:48:42;98079.34;;;-2.90;81.22
30618;BME280;17384;51.214;9.202;2022-12-11T07:51:23;98078.53;;;-2.90;80.98
30618;BME280;17384;51.214;9.202;2022-12-11T07:53:53;98079.22;;;-2.88;80.98
30618;BME280;17384;51.214;9.202;2022-12-11T07:56:19;98068.50;;;-2.96;81.25
30618;BME280;17384;51.214;9.202;2022-12-11T07:58:45;98078.09;;;-2.86;81.19
30618;BME280;17384;51.214;9.202;2022-12-11T08:01:12;98081.97;;;-2.80;80.86
30618;BME280;17384;51.214;9.202;2022-12-11T08:03:38;98077.84;;;-2.92;80.68
30618;BME280;17384;51.214;9.202;2022-12-11T08:06:04;98080.75;;;-2.86;80.62
30618;BME280;17384;51.214;9.202;2022-12-11T08:08:30;98080.19;;;-2.89;80.63
30618;BME280;17384;51.214;9.202;2022-12-11T08:10:56;98079.72;;;-3.02;81.12
30618;BME280;17384;51.214;9.202;2022-12-11T08:13:24;98082.38;;;-3.02;81.26
30618;BME280;17384;51.214;9.202;2022-12-11T08:15:49;98092.66;;;-2.99;80.99
30618;BME280;17384;51.214;9.202;2022-12-11T08:18:15;98089.28;;;-2.92;81.33
30618;BME280;17384;51.214;9.202;2022-12-11T08:20:40;98090.38;;;-2.85;81.21
30618;BME280;17384;51.214;9.202;2022-12-11T08:23:06;98087.31;;;-2.90;81.22
30618;BME280;17384;51.214;9.202;2022-12-11T08:25:31;98083.59;;;-2.97;81.42
30618;BME280;17384;51.214;9.202;2022-12-11T08:27:57;98096.50;;;-2.84;81.53
30618;BME280;17384;51.214;9.202;2022-12-11T08:30:22;98095.63;;;-2.75;81.25
30618;BME280;17384;51.214;9.202;2022-12-11T08:32:48;98088.31;;;-2.73;81.09
30618;BME280;17384;51.214;9.202;2022-12-11T08:35:13;98090.44;;;-2.49;80.35
30618;BME280;17384;51.214;9.202;2022-12-11T08:37:39;98094.81;;;-2.58;80.40
30618;BME280;17384;51.214;9.202;2022-12-11T08:40:06;98082.13;;;-2.64;80.92
30618;BME280;17384;51.214;9.202;2022-12-11T08:42:31;98075.00;;;-2.46;80.22
30618;BME280;17384;51.214;9.202;2022-12-11T08:44:57;98087.53;;;-2.56;80.84
30618;BME280;17384;51.214;9.202;2022-12-11T08:47:22;98086.59;;;-2.64;81.16
30618;BME280;17384;51.214;9.202;2022-12-11T08:49:48;98085.66;;;-2.73;81.25
30618;BME280;17384;51.214;9.202;2022-12-11T08:52:13;98075.53;;;-2.60;81.64
30618;BME280;17384;51.214;9.202;2022-12-11T08:54:39;98072.13;;;-2.52;81.45
30618;BME280;17384;51.214;9.202;2022-12-11T08:57:04;98088.91;;;-2.52;81.21
30618;BME280;17384;51.214;9.202;2022-12-11T08:59:30;98085.41;;;-2.52;80.72
30618;BME280;17384;51.214;9.202;2022-12-11T09:01:55;98073.41;;;-2.56;81.05
30618;BME280;17384;51.214;9.202;2022-12-11T09:04:21;98077.81;;;-2.65;81.42
30618;BME280;17384;51.214;9.202;2022-12-11T09:06:47;98088.06;;;-2.52;81.34
30618;BME280;17384;51.214;9.202;2022-12-11T09:09:13;98079.19;;;-2.61;80.98
30618;BME280;17384;51.214;9.202;2022-12-11T09:11:39;98080.63;;;-2.49;81.00
30618;BME280;17384;51.214;9.202;2022-12-11T09:14:05;98082.38;;;-2.57;81.25
30618;BME280;17384;51.214;9.202;2022-12-11T09:16:31;98080.00;;;-2.43;81.00
30618;BME280;17384;51.214;9.202;2022-12-11T09:18:57;98090.03;;;-2.36;80.78
30618;BME280;17384;51.214;9.202;2022-12-11T09:21:25;98083.81;;;-2.27;80.51
30618;BME280;17384;51.214;9.202;2022-12-11T09:23:53;98088.81;;;-2.24;80.22
30618;BME280;17384;51.214;9.202;2022-12-11T09:26:20;98077.53;;;-2.26;80.42
30618;BME280;17384;51.214;9.202;2022-12-11T09:28:45;98089.88;;;-2.35;80.69
30618;BME280;17384;51.214;9.202;2022-12-11T09:31:14;98085.84;;;-2.39;81.13
30618;BME280;17384;51.214;9.202;2022-12-11T09:33:40;98088.06;;;-2.34;81.32
30618;BME280;17384;51.214;9.202;2022-12-11T09:36:07;98074.69;;;-2.43;81.29
30618;BME280;17384;51.214;9.202;2022-12-11T09:38:33;98080.53;;;-2.39;81.73
30618;BME280;17384;51.214;9.202;2022-12-11T09:40:59;98081.00;;;-2.26;81.54
30618;BME280;17384;51.214;9.202;2022-12-11T09:43:47;98063.75;;;-2.04;80.53
30618;BME280;17384;51.214;9.202;2022-12-11T09:46:15;98073.56;;;-2.22;81.02
30618;BME280;17384;51.214;9.202;2022-12-11T09:48:43;98081.84;;;-2.25;81.35
30618;BME280;17384;51.214;9.202;2022-12-11T09:51:16;98078.28;;;-2.34;81.70
30618;BME280;17384;51.214;9.202;2022-12-11T09:53:43;98070.69;;;-2.29;81.89
30618;BME280;17384;51.214;9.202;2022-12-11T09:56:30;98074.56;;;-2.23;81.70
30618;BME280;17384;51.214;9.202;2022-12-11T10:01:34;98072.19;;;-2.26;82.01
30618;BME280;17384;51.214;9.202;2022-12-11T10:11:39;98063.44;;;-2.01;81.70
30618;BME280;17384;51.214;9.202;2022-12-11T10:19:35;98074.63;;;-1.89;81.46
30618;BME280;17384;51.214;9.202;2022-12-11T10:22:01;98075.63;;;-1.90;80.84
30618;BME280;17384;51.214;9.202;2022-12-11T10:24:32;98073.94;;;-1.91;80.51
30618;BME280;17384;51.214;9.202;2022-12-11T10:27:12;98068.44;;;-1.98;80.95
30618;BME280;17384;51.214;9.202;2022-12-11T10:29:38;98079.19;;;-2.25;81.58
30618;BME280;17384;51.214;9.202;2022-12-11T10:32:10;98081.06;;;-2.00;81.34
30618;BME280;17384;51.214;9.202;2022-12-11T10:34:43;98070.72;;;-2.03;81.51
30618;BME280;17384;51.214;9.202;2022-12-11T10:37:11;98073.28;;;-2.19;81.92
30618;BME280;17384;51.214;9.202;2022-12-11T10:39:36;98057.31;;;-2.19;82.08
30618;BME280;17384;51.214;9.202;2022-12-11T10:42:12;98049.50;;;-2.21;82.52
30618;BME280;17384;51.214;9.202;2022-12-11T10:44:39;98050.69;;;-2.15;81.78
30618;BME280;17384;51.214;9.202;2022-12-11T10:47:10;98059.66;;;-2.16;82.16
30618;BME280;17384;51.214;9.202;2022-12-11T10:49:37;98056.22;;;-2.09;82.10
30618;BME280;17384;51.214;9.202;2022-12-11T10:52:42;98060.94;;;-2.02;82.11
30618;BME280;17384;51.214;9.202;2022-12-11T10:58:15;98052.16;;;-2.21;82.09
30618;BME280;17384;51.214;9.202;2022-12-11T11:00:39;98042.19;;;-2.19;82.24
30618;BME280;17384;51.214;9.202;2022-12-11T11:03:19;98047.56;;;-2.11;82.06
30618;BME280;17384;51.214;9.202;2022-12-11T11:05:46;98041.88;;;-1.98;81.40
30618;BME280;17384;51.214;9.202;2022-12-11T11:08:15;98036.25;;;-1.95;81.70
30618;BME280;17384;51.214;9.202;2022-12-11T11:10:52;98046.22;;;-1.89;81.63
30618;BME280;17384;51.214;9.202;2022-12-11T11:13:22;98051.66;;;-1.98;81.75
30618;BME280;17384;51.214;9.202;2022-12-11T11:15:50;98043.72;;;-1.90;81.93
30618;BME280;17384;51.214;9.202;2022-12-11T11:18:24;98034.97;;;-1.83;81.70
30618;BME280;17384;51.214;9.202;2022-12-11T11:20:51;98043.22;;;-1.68;81.92
30618;BME280;17384;51.214;9.202;2022-12-11T11:23:19;98027.75;;;-1.73;81.63
30618;BME280;17384;51.214;9.202;2022-12-11T11:25:56;98029.56;;;-1.73;81.75
30618;BME280;17384;51.214;9.202;2022-12-11T11:31:03;98026.06;;;-1.74;82.39
30618;BME280;17384;51.214;9.202;2022-12-11T11:33:30;98028.72;;;-1.74;82.24
30618;BME280;17384;51.214;9.202;2022-12-11T11:38:31;98021.66;;;-1.65;82.39
30618;BME280;17384;51.214;9.202;2022-12-11T11:41:12;98025.16;;;-1.56;82.10
30618;BME280;17384;51.214;9.202;2022-12-11T11:43:44;98018.28;;;-1.41;80.58
30618;BME280;17384;51.214;9.202;2022-12-11T11:49:05;98019.94;;;-1.40;79.56
30618;BME280;17384;51.214;9.202;2022-12-11T11:51:42;98025.22;;;-1.48;80.18
30618;BME280;17384;51.214;9.202;2022-12-11T11:54:30;98005.31;;;-1.36;79.46
30618;BME280;17384;51.214;9.202;2022-12-11T11:56:58;98014.09;;;-1.44;79.99
30618;BME280;17384;51.214;9.202;2022-12-11T11:59:40;98000.97;;;-1.45;79.71
30618;BME280;17384;51.214;9.202;2022-12-11T12:02:15;98008.38;;;-1.57;80.38
30618;BME280;17384;51.214;9.202;2022-12-11T12:04:41;98013.47;;;-1.63;80.42
30618;BME280;17384;51.214;9.202;2022-12-11T12:07:28;98000.06;;;-1.88;81.09
30618;BME280;17384;51.214;9.202;2022-12-11T12:10:02;98003.41;;;-1.86;81.52
30618;BME280;17384;51.214;9.202;2022-12-11T12:21:44;97988.25;;;-1.93;82.49
30618;BME280;17384;51.214;9.202;2022-12-11T12:26:45;97994.78;;;-1.80;81.75
30618;BME280;17384;51.214;9.202;2022-12-11T12:35:20;97990.88;;;-1.67;81.71
30618;BME280;17384;51.214;9.202;2022-12-11T12:38:09;97989.75;;;-1.57;81.39
30618;BME280;17384;51.214;9.202;2022-12-11T12:48:38;97984.03;;;-1.36;80.83
30618;BME280;17384;51.214;9.202;2022-12-11T12:51:04;97993.03;;;-1.37;80.55
30618;BME280;17384;51.214;9.202;2022-12-11T12:53:33;97990.00;;;-1.34;80.86
30618;BME280;17384;51.214;9.202;2022-12-11T12:56:02;97991.00;;;-1.35;81.00
30618;BME280;17384;51.214;9.202;2022-12-11T13:04:00;97996.31;;;-1.35;80.83
30618;BME280;17384;51.214;9.202;2022-12-11T13:06:44;98005.31;;;-1.36;80.93
30618;BME280;17384;51.214;9.202;2022-12-11T13:09:21;97993.03;;;-1.37;80.87
30618;BME280;17384;51.214;9.202;2022-12-11T13:11:49;97992.19;;;-1.38;81.29
30618;BME280;17384;51.214;9.202;2022-12-11T13:16:44;97991.47;;;-1.48;81.22
30618;BME280;17384;51.214;9.202;2022-12-11T13:22:19;97990.31;;;-1.45;81.70
30618;BME280;17384;51.214;9.202;2022-12-11T13:27:45;97987.72;;;-1.37;81.67
30618;BME280;17384;51.214;9.202;2022-12-11T13:32:40;97986.19;;;-1.40;81.80
30618;BME280;17384;51.214;9.202;2022-12-11T13:35:15;97986.66;;;-1.44;81.71
30618;BME280;17384;51.214;9.202;2022-12-11T13:37:45;97984.03;;;-1.36;81.73
30618;BME280;17384;51.214;9.202;2022-12-11T13:40:14;97990.00;;;-1.42;80.82
30618;BME280;17384;51.214;9.202;2022-12-11T13:45:57;98001.03;;;-1.63;80.79
30618;BME280;17384;51.214;9.202;2022-12-11T13:48:58;97994.09;;;-1.56;80.85
30618;BME280;17384;51.214;9.202;2022-12-11T13:51:27;98009.94;;;-1.46;80.56
30618;BME280;17384;51.214;9.202;2022-12-11T13:54:14;98002.13;;;-1.48;80.28
30618;BME280;17384;51.214;9.202;2022-12-11T13:57:01;98006.41;;;-1.55;80.17
30618;BME280;17384;51.214;9.202;2022-12-11T13:59:34;98008.69;;;-1.60;80.17
30618;BME280;17384;51.214;9.202;2022-12-11T14:02:09;98005.50;;;-1.72;80.64
30618;BME280;17384;51.214;9.202;2022-12-11T14:04:36;98003.34;;;-1.68;80.75
30618;BME280;17384;51.214;9.202;2022-12-11T14:07:05;98001.38;;;-1.58;80.28
30618;BME280;17384;51.214;9.202;2022-12-11T14:09:32;98012.19;;;-1.59;80.12
30618;BME280;17384;51.214;9.202;2022-12-11T14:11:57;98002.22;;;-1.57;80.15
30618;BME280;17384;51.214;9.202;2022-12-11T14:16:57;98010.19;;;-1.65;80.18
30618;BME280;17384;51.214;9.202;2022-12-11T14:19:23;98004.03;;;-1.66;80.25
30618;BME280;17384;51.214;9.202;2022-12-11T14:21:57;98008.41;;;-1.83;80.50
30618;BME280;17384;51.214;9.202;2022-12-11T14:24:23;98008.72;;;-1.86;80.76
30618;BME280;17384;51.214;9.202;2022-12-11T14:26:50;98017.38;;;-1.84;81.14
30618;BME280;17384;51.214;9.202;2022-12-11T14:29:42;97998.38;;;-1.89;81.02
30618;BME280;17384;51.214;9.202;2022-12-11T14:32:08;98005.75;;;-1.83;81.19
30618;BME280;17384;51.214;9.202;2022-12-11T14:34:43;98008.41;;;-1.83;81.01
30618;BME280;17384;51.214;9.202;2022-12-11T14:37:10;98012.88;;;-1.83;81.20
30618;BME280;17384;51.214;9.202;2022-12-11T14:39:49;98013.94;;;-1.76;81.23
30618;BME280;17384;51.214;9.202;2022-12-11T14:42:19;98003.59;;;-1.79;81.12
30618;BME280;17384;51.214;9.202;2022-12-11T14:47:54;98001.88;;;-1.88;81.44